createdAt,value
2023-02-17T00:00:39.483Z,101790.78
2023-02-17T00:02:41.440Z,101797.69
2023-02-17T00:04:43.408Z,101796.88
2023-02-17T00:06:45.469Z,101787.72
2023-02-17T00:08:48.084Z,101791.09
2023-02-17T00:10:56.682Z,101792.66
2023-02-17T00:12:58.763Z,101786.16
2023-02-17T00:15:00.754Z,101793.75
2023-02-17T00:17:02.683Z,101790.78
2023-02-17T00:19:25.065Z,101796.91
2023-02-17T00:21:29.966Z,101798.88
2023-02-17T00:23:31.870Z,101799.66
2023-02-17T00:25:33.855Z,101795.63
2023-02-17T00:27:35.832Z,101793.38
2023-02-17T00:29:38.017Z,101802.03
2023-02-17T00:31:40.070Z,101803.19
2023-02-17T00:33:42.354Z,101793.88
2023-02-17T00:35:44.346Z,101787.94
2023-02-17T00:37:46.369Z,101789.22
2023-02-17T00:39:48.514Z,101788.50
2023-02-17T00:41:50.571Z,101786.09
2023-02-17T00:43:52.630Z,101782.81
2023-02-17T00:45:54.668Z,101790.41
2023-02-17T00:47:56.672Z,101776.78
2023-02-17T00:49:58.588Z,101781.94
2023-02-17T00:52:02.701Z,101787.53
2023-02-17T00:54:04.786Z,101782.59
2023-02-17T00:56:07.818Z,101776.25
2023-02-17T00:58:10.012Z,101778.34
2023-02-17T01:00:12.716Z,101781.63
2023-02-17T01:02:14.803Z,101777.91
2023-02-17T01:04:16.756Z,101783.94
2023-02-17T01:06:24.880Z,101782.03
2023-02-17T01:08:26.862Z,101777.38
2023-02-17T01:10:28.864Z,101779.09
2023-02-17T01:12:30.857Z,101774.88
2023-02-17T01:14:32.832Z,101779.00
2023-02-17T01:16:38.858Z,101778.69
2023-02-17T01:18:40.790Z,101777.66
2023-02-17T01:20:43.201Z,101791.16
2023-02-17T01:22:45.160Z,101769.81
2023-02-17T01:24:47.152Z,101774.97
2023-02-17T01:26:49.176Z,101765.63
2023-02-17T01:28:52.519Z,101761.22
2023-02-17T01:30:54.525Z,101772.97
2023-02-17T01:32:56.495Z,101765.28
2023-02-17T01:34:58.642Z,101764.44
2023-02-17T01:37:00.664Z,101761.22
2023-02-17T01:39:02.687Z,101755.22
2023-02-17T01:41:05.734Z,101753.53
2023-02-17T01:43:16.592Z,101758.66
2023-02-17T01:45:19.297Z,101755.59
2023-02-17T01:47:21.276Z,101751.44
2023-02-17T01:49:25.092Z,101757.25
2023-02-17T01:51:31.426Z,101754.78
2023-02-17T01:53:40.409Z,101762.56
2023-02-17T01:55:43.371Z,101752.41
2023-02-17T01:57:46.953Z,101757.34
2023-02-17T01:59:49.338Z,101763.41
2023-02-17T02:01:57.271Z,101758.41
2023-02-17T02:04:01.266Z,101751.50
2023-02-17T02:06:09.005Z,101763.28
2023-02-17T02:08:12.455Z,101759.84
2023-02-17T02:10:17.927Z,101760.81
2023-02-17T02:12:24.980Z,101753.25
2023-02-17T02:14:27.926Z,101773.75
2023-02-17T02:16:42.788Z,101761.22
2023-02-17T02:18:56.829Z,101753.28
2023-02-17T02:20:59.557Z,101754.97
2023-02-17T02:23:07.710Z,101752.09
2023-02-17T02:25:15.917Z,101743.56
2023-02-17T02:27:28.993Z,101739.81
2023-02-17T02:29:46.209Z,101739.91
2023-02-17T02:31:54.474Z,101746.06
2023-02-17T02:34:01.636Z,101741.75
2023-02-17T02:36:11.100Z,101736.75
2023-02-17T02:38:18.365Z,101741.81
2023-02-17T02:40:26.003Z,101738.69
2023-02-17T02:42:28.795Z,101749.16
2023-02-17T02:44:30.925Z,101745.22
2023-02-17T02:46:32.893Z,101744.47
2023-02-17T02:48:35.497Z,101739.59
2023-02-17T02:50:40.936Z,101751.59
2023-02-17T02:52:47.429Z,101757.41
2023-02-17T02:54:52.811Z,101762.50
2023-02-17T02:57:04.993Z,101765.38
2023-02-17T02:59:10.423Z,101748.16
2023-02-17T03:01:21.080Z,101751.88
2023-02-17T03:03:37.364Z,101745.19
2023-02-17T03:05:49.640Z,101749.56
2023-02-17T03:07:59.139Z,101753.00
2023-02-17T03:10:01.815Z,101753.03
2023-02-17T03:12:04.260Z,101758.41
2023-02-17T03:14:11.081Z,101752.78
2023-02-17T03:16:14.900Z,101753.03
2023-02-17T03:18:16.960Z,101755.66
2023-02-17T03:20:19.066Z,101750.66
2023-02-17T03:22:24.252Z,101754.56
2023-02-17T03:24:26.346Z,101747.19
2023-02-17T03:26:28.393Z,101742.72
2023-02-17T03:28:30.502Z,101741.84
2023-02-17T03:30:32.638Z,101738.47
2023-02-17T03:32:34.889Z,101744.66
2023-02-17T03:34:36.891Z,101746.13
2023-02-17T03:36:38.799Z,101747.75
2023-02-17T03:38:40.803Z,101739.19
2023-02-17T03:40:42.742Z,101743.56
2023-02-17T03:42:44.669Z,101744.50
2023-02-17T03:44:46.692Z,101736.78
2023-02-17T03:46:48.734Z,101745.59
2023-02-17T03:48:50.740Z,101735.19
2023-02-17T03:50:52.871Z,101753.88
2023-02-17T03:52:54.872Z,101753.03
2023-02-17T03:54:56.857Z,101755.31
2023-02-17T03:56:59.723Z,101755.50
2023-02-17T03:59:01.680Z,101749.56
2023-02-17T04:01:04.539Z,101722.19
2023-02-17T04:03:06.576Z,101728.09
2023-02-17T04:05:08.826Z,101728.25
2023-02-17T04:07:10.804Z,101722.22
2023-02-17T04:09:12.782Z,101731.25
2023-02-17T04:11:14.757Z,101731.28
2023-02-17T04:13:16.728Z,101734.13
2023-02-17T04:15:18.765Z,101753.03
2023-02-17T04:17:20.749Z,101743.56
2023-02-17T04:19:22.798Z,101745.53
2023-02-17T04:21:24.754Z,101751.31
2023-02-17T04:23:26.973Z,101752.88
2023-02-17T04:25:28.943Z,101753.28
2023-02-17T04:27:30.891Z,101753.22
2023-02-17T04:29:33.813Z,101745.53
2023-02-17T04:31:36.088Z,101754.00
2023-02-17T04:33:38.168Z,101762.78
2023-02-17T04:35:40.846Z,101746.38
2023-02-17T04:37:42.923Z,101748.13
2023-02-17T04:39:45.005Z,101757.25
2023-02-17T04:41:46.988Z,101748.22
2023-02-17T04:43:48.940Z,101757.59
2023-02-17T04:45:51.218Z,101752.25
2023-02-17T04:47:53.200Z,101756.47
2023-02-17T04:49:55.130Z,101764.13
2023-02-17T04:51:57.169Z,101752.25
2023-02-17T04:53:59.065Z,101745.31
2023-02-17T04:56:01.106Z,101740.03
2023-02-17T04:58:03.078Z,101755.56
2023-02-17T05:00:06.449Z,101750.38
2023-02-17T05:02:08.449Z,101754.72
2023-02-17T05:04:10.471Z,101770.22
2023-02-17T05:06:12.389Z,101759.22
2023-02-17T05:08:14.409Z,101760.09
2023-02-17T05:10:17.816Z,101767.66
2023-02-17T05:12:20.088Z,101768.44
2023-02-17T05:14:22.014Z,101778.06
2023-02-17T05:16:24.004Z,101782.25
2023-02-17T05:18:26.046Z,101764.78
2023-02-17T05:20:28.162Z,101749.63
2023-02-17T05:22:30.133Z,101756.66
2023-02-17T05:24:32.260Z,101778.44
2023-02-17T05:26:34.227Z,101771.72
2023-02-17T05:28:37.394Z,101754.41
2023-02-17T05:30:39.366Z,101761.59
2023-02-17T05:32:41.295Z,101795.53
2023-02-17T05:34:43.507Z,101768.63
2023-02-17T05:36:45.471Z,101768.69
2023-02-17T05:38:49.960Z,101755.44
2023-02-17T05:40:51.921Z,101771.69
2023-02-17T05:42:53.895Z,101748.09
2023-02-17T05:44:56.721Z,101775.00
2023-02-17T05:46:58.675Z,101771.47
2023-02-17T05:49:00.645Z,101756.19
2023-02-17T05:51:02.679Z,101781.88
2023-02-17T05:53:04.676Z,101772.22
2023-02-17T05:55:07.161Z,101754.19
2023-02-17T05:57:09.228Z,101755.03
2023-02-17T05:59:11.208Z,101750.19
2023-02-17T06:01:13.416Z,101759.00
2023-02-17T06:03:16.029Z,101768.19
2023-02-17T06:05:18.181Z,101760.50
2023-02-17T06:07:20.240Z,101770.41
2023-02-17T06:09:22.228Z,101775.25
2023-02-17T06:11:24.455Z,101759.63
2023-02-17T06:13:26.430Z,101743.13
2023-02-17T06:15:28.409Z,101754.75
2023-02-17T06:17:30.380Z,101765.31
2023-02-17T06:19:32.349Z,101758.13
2023-02-17T06:21:34.304Z,101758.28
2023-02-17T06:23:36.260Z,101752.25
2023-02-17T06:25:38.302Z,101751.25
2023-02-17T06:27:42.233Z,101744.06
2023-02-17T06:29:44.929Z,101735.13
2023-02-17T06:31:47.246Z,101736.69
2023-02-17T06:33:49.311Z,101734.44
2023-02-17T06:35:51.997Z,101740.06
2023-02-17T06:37:54.004Z,101729.69
2023-02-17T06:39:56.015Z,101743.47
2023-02-17T06:41:57.986Z,101741.91
2023-02-17T06:43:59.960Z,101739.03
2023-02-17T06:46:01.981Z,101744.53
2023-02-17T06:48:04.337Z,101748.03
2023-02-17T06:50:07.712Z,101748.16
2023-02-17T06:52:09.727Z,101751.72
2023-02-17T06:54:11.718Z,101750.69
2023-02-17T06:56:13.693Z,101758.44
2023-02-17T06:58:15.673Z,101755.16
2023-02-17T07:00:18.256Z,101732.78
2023-02-17T07:02:20.349Z,101735.44
2023-02-17T07:04:22.510Z,101727.66
2023-02-17T07:06:25.230Z,101737.75
2023-02-17T07:08:27.366Z,101739.03
2023-02-17T07:10:30.061Z,101726.69
2023-02-17T07:12:32.050Z,101745.09
2023-02-17T07:14:35.419Z,101731.09
2023-02-17T07:16:37.578Z,101744.03
2023-02-17T07:18:40.093Z,101748.91
2023-02-17T07:20:42.174Z,101743.03
2023-02-17T07:22:44.338Z,101749.16
2023-02-17T07:24:46.688Z,101780.81
2023-02-17T07:26:49.263Z,101752.16
2023-02-17T07:28:51.208Z,101775.22
2023-02-17T07:30:53.322Z,101769.78
2023-02-17T07:32:55.284Z,101754.75
2023-02-17T07:34:57.256Z,101755.47
2023-02-17T07:36:59.365Z,101754.75
2023-02-17T07:39:01.394Z,101792.75
2023-02-17T07:41:08.121Z,101773.06
2023-02-17T07:43:10.128Z,101782.41
2023-02-17T07:45:12.142Z,101774.69
2023-02-17T07:47:14.187Z,101798.78
2023-02-17T07:49:17.888Z,101797.69
2023-02-17T07:51:22.385Z,101798.78
2023-02-17T07:53:24.875Z,101811.72
2023-02-17T07:55:26.935Z,101847.78
2023-02-17T07:57:29.016Z,101843.47
2023-02-17T07:59:31.032Z,101842.91
2023-02-17T08:01:33.095Z,101846.41
2023-02-17T08:03:35.193Z,101866.84
2023-02-17T08:05:40.963Z,101853.50
2023-02-17T08:07:43.013Z,101877.72
2023-02-17T08:09:48.190Z,101873.56
2023-02-17T08:11:53.444Z,101873.47
2023-02-17T08:13:55.398Z,101872.50
2023-02-17T08:15:57.428Z,101887.09
2023-02-17T08:18:00.998Z,101870.53
2023-02-17T08:20:08.839Z,101877.53
2023-02-17T08:22:11.198Z,101848.66
2023-02-17T08:24:13.247Z,101858.81
2023-02-17T08:26:15.452Z,101842.06
2023-02-17T08:28:18.042Z,101849.63
2023-02-17T08:30:20.242Z,101852.59
2023-02-17T08:32:22.408Z,101862.03
2023-02-17T08:34:24.462Z,101862.75
2023-02-17T08:36:27.817Z,101871.53
2023-02-17T08:38:29.988Z,101866.06
2023-02-17T08:40:32.543Z,101876.47
2023-02-17T08:42:34.939Z,101881.44
2023-02-17T08:44:37.534Z,101878.03
2023-02-17T08:46:40.165Z,101873.00
2023-02-17T08:48:43.672Z,101904.06
2023-02-17T08:50:48.334Z,101893.56
2023-02-17T08:52:50.364Z,101883.78
2023-02-17T08:54:52.988Z,101860.91
2023-02-17T08:56:55.144Z,101862.69
2023-02-17T08:58:57.550Z,101856.59
2023-02-17T09:01:00.111Z,101868.50
2023-02-17T09:03:02.327Z,101858.72
2023-02-17T09:05:05.944Z,101854.31
2023-02-17T09:07:11.873Z,101860.44
2023-02-17T09:09:16.886Z,101869.97
2023-02-17T09:11:21.058Z,101882.84
2023-02-17T09:13:23.212Z,101867.22
2023-02-17T09:15:25.475Z,101876.25
2023-02-17T09:17:27.724Z,101848.31
2023-02-17T09:19:29.723Z,101846.56
2023-02-17T09:21:32.028Z,101845.75
2023-02-17T09:23:34.201Z,101875.91
2023-02-17T09:25:36.313Z,101849.94
2023-02-17T09:27:38.418Z,101848.28
2023-02-17T09:29:41.030Z,101847.69
2023-02-17T09:31:43.324Z,101856.56
2023-02-17T09:33:45.941Z,101861.41
2023-02-17T09:35:49.402Z,101874.44
2023-02-17T09:37:51.793Z,101863.16
2023-02-17T09:39:53.970Z,101869.19
2023-02-17T09:41:57.984Z,101862.94
2023-02-17T09:44:00.688Z,101868.88
2023-02-17T09:46:10.375Z,101867.44
2023-02-17T09:48:18.680Z,101853.06
2023-02-17T09:50:26.342Z,101876.66
2023-02-17T09:52:36.232Z,101851.84
2023-02-17T09:54:52.564Z,101831.72
2023-02-17T09:56:57.108Z,101849.25
2023-02-17T09:59:02.522Z,101841.94
2023-02-17T10:01:11.547Z,101841.91
2023-02-17T10:03:18.398Z,101838.75
2023-02-17T10:05:25.897Z,101833.13
2023-02-17T10:07:35.038Z,101848.25
2023-02-17T10:09:47.939Z,101832.41
2023-02-17T10:11:56.247Z,101836.31
2023-02-17T10:14:04.981Z,101842.94
2023-02-17T10:16:14.260Z,101841.31
2023-02-17T10:18:26.641Z,101828.16
2023-02-17T10:20:40.367Z,101834.56
2023-02-17T10:22:47.845Z,101840.03
2023-02-17T10:24:50.119Z,101844.72
2023-02-17T10:26:55.691Z,101824.16
2023-02-17T10:29:05.740Z,101851.13
2023-02-17T10:31:15.748Z,101829.81
2023-02-17T10:33:21.381Z,101824.00
2023-02-17T10:35:33.787Z,101827.59
2023-02-17T10:37:41.132Z,101824.94
2023-02-17T10:39:46.720Z,101834.06
2023-02-17T10:41:52.006Z,101835.69
2023-02-17T10:43:55.202Z,101818.75
2023-02-17T10:46:00.140Z,101826.50
2023-02-17T10:48:08.276Z,101850.00
2023-02-17T10:50:16.488Z,101831.94
2023-02-17T10:52:20.926Z,101838.00
2023-02-17T10:54:27.457Z,101829.44
2023-02-17T10:56:39.025Z,101829.78
2023-02-17T10:58:45.595Z,101842.88
2023-02-17T11:00:53.397Z,101832.44
2023-02-17T11:02:55.511Z,101819.00
2023-02-17T11:05:00.048Z,101839.66
2023-02-17T11:07:03.822Z,101818.19
2023-02-17T11:09:17.560Z,101824.56
2023-02-17T11:11:22.678Z,101830.25
2023-02-17T11:13:32.351Z,101848.19
2023-02-17T11:15:43.470Z,101844.38
2023-02-17T11:17:46.922Z,101848.44
2023-02-17T11:19:55.575Z,101860.19
2023-02-17T11:22:00.801Z,101850.69
2023-02-17T11:24:06.187Z,101877.94
2023-02-17T11:26:12.093Z,101856.59
2023-02-17T11:28:24.181Z,101872.75
2023-02-17T11:30:28.550Z,101855.53
2023-02-17T11:32:33.116Z,101884.19
2023-02-17T11:34:38.665Z,101853.88
2023-02-17T11:36:41.210Z,101855.25
2023-02-17T11:38:46.387Z,101868.34
2023-02-17T11:41:00.112Z,101853.22
2023-02-17T11:43:06.247Z,101854.53
2023-02-17T11:45:17.498Z,101849.28
2023-02-17T11:47:23.047Z,101853.16
2023-02-17T11:49:28.602Z,101850.06
2023-02-17T11:51:34.379Z,101867.00
2023-02-17T11:53:46.686Z,101846.50
2023-02-17T11:55:52.284Z,101847.72
2023-02-17T11:58:01.627Z,101853.81
2023-02-17T12:00:10.012Z,101865.94
2023-02-17T12:02:15.666Z,101858.75
2023-02-17T12:04:21.711Z,101856.47
2023-02-17T12:06:30.518Z,101876.88
2023-02-17T12:08:34.319Z,101866.16
2023-02-17T12:10:39.843Z,101871.41
2023-02-17T12:12:46.361Z,101886.00
2023-02-17T12:14:50.379Z,101874.31
2023-02-17T12:17:00.624Z,101877.34
2023-02-17T12:19:07.201Z,101876.44
2023-02-17T12:21:20.959Z,101884.50
2023-02-17T12:23:31.960Z,101885.28
2023-02-17T12:25:40.440Z,101894.00
2023-02-17T12:27:48.762Z,101881.22
2023-02-17T12:29:57.075Z,101889.94
2023-02-17T12:32:02.777Z,101900.34
2023-02-17T12:34:11.232Z,101897.63
2023-02-17T12:36:17.135Z,101889.81
2023-02-17T12:38:25.909Z,101894.22
2023-02-17T12:40:31.475Z,101904.63
2023-02-17T12:42:37.522Z,101896.91
2023-02-17T12:44:44.523Z,101913.91
2023-02-17T12:46:51.062Z,101887.56
2023-02-17T12:48:59.304Z,101918.13
2023-02-17T12:51:12.570Z,101902.72
2023-02-17T12:53:34.625Z,101901.16
2023-02-17T12:55:41.020Z,101899.75
2023-02-17T12:57:49.458Z,101900.38
2023-02-17T12:59:53.736Z,101907.69
2023-02-17T13:02:02.398Z,101896.25
2023-02-17T13:04:05.284Z,101919.41
2023-02-17T13:06:19.011Z,101925.59
2023-02-17T13:08:24.656Z,101904.19
2023-02-17T13:10:27.509Z,101907.84
2023-02-17T13:12:32.984Z,101911.78
2023-02-17T13:14:41.463Z,101902.28
2023-02-17T13:16:46.228Z,101911.78
2023-02-17T13:18:51.173Z,101911.94
2023-02-17T13:20:55.617Z,101919.09
2023-02-17T13:23:03.891Z,101920.59
2023-02-17T13:25:07.279Z,101917.22
2023-02-17T13:27:12.483Z,101910.41
2023-02-17T13:29:19.666Z,101933.22
2023-02-17T13:31:25.170Z,101923.59
2023-02-17T13:33:31.103Z,101952.09
2023-02-17T13:35:37.204Z,101955.22
2023-02-17T13:37:44.267Z,101938.84
2023-02-17T13:39:46.836Z,101937.09
2023-02-17T13:41:49.509Z,101961.25
2023-02-17T13:43:51.823Z,101970.38
2023-02-17T13:46:00.386Z,101950.56
2023-02-17T13:48:09.041Z,101939.81
2023-02-17T13:50:17.498Z,101953.44
2023-02-17T13:52:24.866Z,101951.03
2023-02-17T13:54:26.922Z,101958.25
2023-02-17T13:56:33.700Z,101937.09
2023-02-17T13:58:38.707Z,101957.09
2023-02-17T14:00:44.276Z,101957.53
2023-02-17T14:02:49.471Z,101964.31
2023-02-17T14:04:54.656Z,101961.69
2023-02-17T14:07:00.368Z,101964.84
2023-02-17T14:09:15.340Z,101953.69
2023-02-17T14:11:20.443Z,101959.88
2023-02-17T14:13:24.760Z,101968.66
2023-02-17T14:15:28.995Z,101978.28
2023-02-17T14:17:33.422Z,101976.88
2023-02-17T14:19:42.238Z,101968.88
2023-02-17T14:21:56.859Z,101970.69
2023-02-17T14:23:59.950Z,101969.16
2023-02-17T14:26:10.420Z,102002.16
2023-02-17T14:28:18.801Z,101974.06
2023-02-17T14:30:27.041Z,101972.44
2023-02-17T14:32:31.835Z,101978.41
2023-02-17T14:34:36.059Z,101980.00
2023-02-17T14:36:39.955Z,102000.91
2023-02-17T14:38:42.282Z,101998.22
2023-02-17T14:40:44.356Z,102006.03
2023-02-17T14:42:47.118Z,101995.41
2023-02-17T14:44:49.304Z,102002.94
2023-02-17T14:46:51.476Z,102009.31
2023-02-17T14:48:54.573Z,101992.88
2023-02-17T14:50:57.847Z,101993.59
2023-02-17T14:52:59.898Z,102002.38
2023-02-17T14:55:01.993Z,101997.63
2023-02-17T14:57:07.552Z,101997.84
2023-02-17T14:59:10.292Z,102008.41
2023-02-17T15:01:15.687Z,102012.16
2023-02-17T15:03:18.236Z,101997.34
2023-02-17T15:05:20.669Z,102009.47
2023-02-17T15:07:23.293Z,102013.59
2023-02-17T15:09:30.502Z,102013.72
2023-02-17T15:11:37.128Z,102013.97
2023-02-17T15:13:40.347Z,102019.81
2023-02-17T15:15:45.393Z,102018.16
2023-02-17T15:17:48.329Z,102018.84
2023-02-17T15:19:50.429Z,102024.16
2023-02-17T15:21:52.750Z,102027.75
2023-02-17T15:23:56.390Z,102038.66
2023-02-17T15:25:58.705Z,102028.69
2023-02-17T15:28:00.860Z,102035.66
2023-02-17T15:30:03.037Z,102055.44
2023-02-17T15:32:15.200Z,102055.56
2023-02-17T15:34:21.990Z,102043.38
2023-02-17T15:36:25.466Z,102051.91
2023-02-17T15:38:27.914Z,102039.88
2023-02-17T15:40:31.027Z,102036.34
2023-02-17T15:42:33.200Z,102046.81
2023-02-17T15:44:43.357Z,102036.41
2023-02-17T15:46:46.429Z,102057.78
2023-02-17T15:48:49.980Z,102043.22
2023-02-17T15:50:53.135Z,102045.66
2023-02-17T15:52:55.339Z,102049.75
2023-02-17T15:54:57.510Z,102051.78
2023-02-17T15:57:00.672Z,102033.47
2023-02-17T15:59:10.901Z,102038.59
2023-02-17T16:01:21.159Z,102062.53
2023-02-17T16:03:23.235Z,102059.69
2023-02-17T16:05:27.978Z,102046.28
2023-02-17T16:07:30.168Z,102047.97
2023-02-17T16:09:32.488Z,102052.41
2023-02-17T16:11:35.000Z,102056.88
2023-02-17T16:13:37.204Z,102068.16
2023-02-17T16:15:39.279Z,102064.50
2023-02-17T16:17:41.874Z,102070.75
2023-02-17T16:19:44.213Z,102084.31
2023-02-17T16:21:46.314Z,102081.09
2023-02-17T16:23:48.382Z,102086.75
2023-02-17T16:25:51.047Z,102072.34
2023-02-17T16:27:53.748Z,102084.16
2023-02-17T16:29:55.972Z,102085.09
2023-02-17T16:31:58.116Z,102089.81
2023-02-17T16:34:00.582Z,102073.09
2023-02-17T16:36:03.249Z,102081.84
2023-02-17T16:38:12.986Z,102083.50
2023-02-17T16:40:18.379Z,102079.81
2023-02-17T16:42:20.748Z,102080.28
2023-02-17T16:44:23.819Z,102075.00
2023-02-17T16:46:31.453Z,102080.06
2023-02-17T16:48:37.183Z,102088.41
2023-02-17T16:50:39.409Z,102092.63
2023-02-17T16:52:41.585Z,102085.09
2023-02-17T16:54:43.762Z,102081.41
2023-02-17T16:56:49.724Z,102086.34
2023-02-17T16:58:51.830Z,102094.06
2023-02-17T17:00:56.044Z,102099.16
2023-02-17T17:02:59.240Z,102103.44
2023-02-17T17:05:01.319Z,102106.03
2023-02-17T17:07:03.729Z,102081.81
2023-02-17T17:09:06.746Z,102103.97
2023-02-17T17:11:13.684Z,102095.06
2023-02-17T17:13:15.864Z,102108.00
2023-02-17T17:15:19.728Z,102111.13
2023-02-17T17:17:21.924Z,102114.66
2023-02-17T17:19:24.394Z,102112.16
2023-02-17T17:21:26.621Z,102107.09
2023-02-17T17:23:28.948Z,102114.94
2023-02-17T17:25:33.528Z,102110.78
2023-02-17T17:27:37.123Z,102133.34
2023-02-17T17:29:39.182Z,102127.72
2023-02-17T17:31:41.553Z,102126.38
2023-02-17T17:33:43.926Z,102129.63
2023-02-17T17:35:45.972Z,102129.03
2023-02-17T17:37:48.456Z,102148.13
2023-02-17T17:39:50.560Z,102137.59
2023-02-17T17:41:53.255Z,102144.53
2023-02-17T17:43:56.498Z,102141.84
2023-02-17T17:45:58.651Z,102140.06
2023-02-17T17:48:00.809Z,102149.44
2023-02-17T17:50:03.063Z,102151.09
2023-02-17T17:52:05.423Z,102157.88
2023-02-17T17:54:08.114Z,102165.81
2023-02-17T17:56:16.516Z,102161.16
2023-02-17T17:58:18.672Z,102165.03
2023-02-17T18:00:21.080Z,102162.91
2023-02-17T18:02:23.353Z,102165.78
2023-02-17T18:04:25.547Z,102174.38
2023-02-17T18:06:34.899Z,102169.22
2023-02-17T18:08:37.406Z,102166.44
2023-02-17T18:10:40.760Z,102161.25
2023-02-17T18:12:45.788Z,102167.50
2023-02-17T18:14:52.617Z,102183.97
2023-02-17T18:16:55.038Z,102182.81
2023-02-17T18:18:59.629Z,102177.66
2023-02-17T18:21:01.769Z,102191.22
2023-02-17T18:23:04.021Z,102197.09
2023-02-17T18:25:06.903Z,102198.19
2023-02-17T18:27:09.005Z,102188.00
2023-02-17T18:29:11.196Z,102192.44
2023-02-17T18:31:15.449Z,102198.06
2023-02-17T18:33:17.752Z,102187.84
2023-02-17T18:35:20.920Z,102197.34
2023-02-17T18:37:22.989Z,102190.75
2023-02-17T18:39:25.301Z,102210.78
2023-02-17T18:41:29.768Z,102197.69
2023-02-17T18:43:32.079Z,102196.81
2023-02-17T18:45:34.314Z,102207.16
2023-02-17T18:47:36.471Z,102206.41
2023-02-17T18:49:38.655Z,102214.91
2023-02-17T18:51:41.014Z,102199.59
2023-02-17T18:53:43.395Z,102204.56
2023-02-17T18:55:45.476Z,102199.09
2023-02-17T18:57:47.727Z,102188.88
2023-02-17T18:59:50.528Z,102190.72
2023-02-17T19:01:52.614Z,102204.16
2023-02-17T19:03:55.660Z,102202.53
2023-02-17T19:05:57.896Z,102210.44
2023-02-17T19:08:00.050Z,102205.09
2023-02-17T19:10:02.525Z,102203.59
2023-02-17T19:12:06.073Z,102208.56
2023-02-17T19:14:08.224Z,102205.03
2023-02-17T19:16:15.237Z,102211.06
2023-02-17T19:18:17.413Z,102207.13
2023-02-17T19:20:19.800Z,102206.72
2023-02-17T19:22:21.963Z,102203.66
2023-02-17T19:24:24.124Z,102209.75
2023-02-17T19:26:26.209Z,102213.13
2023-02-17T19:28:28.642Z,102210.19
2023-02-17T19:30:30.894Z,102211.94
2023-02-17T19:32:32.988Z,102223.47
2023-02-17T19:34:36.120Z,102210.41
2023-02-17T19:36:38.153Z,102209.63
2023-02-17T19:38:40.247Z,102205.59
2023-02-17T19:40:42.544Z,102210.63
2023-02-17T19:42:44.643Z,102206.97
2023-02-17T19:44:47.092Z,102205.41
2023-02-17T19:46:49.351Z,102196.69
2023-02-17T19:48:51.555Z,102200.56
2023-02-17T19:50:59.841Z,102204.41
2023-02-17T19:53:02.072Z,102203.66
2023-02-17T19:55:05.253Z,102207.78
2023-02-17T19:57:07.323Z,102209.31
2023-02-17T19:59:09.415Z,102207.28
2023-02-17T20:01:15.410Z,102208.13
2023-02-17T20:03:17.736Z,102200.19
2023-02-17T20:05:19.928Z,102199.56
2023-02-17T20:07:22.080Z,102190.34
2023-02-17T20:09:24.391Z,102203.28
2023-02-17T20:11:27.167Z,102194.38
2023-02-17T20:13:34.708Z,102186.75
2023-02-17T20:15:42.790Z,102181.94
2023-02-17T20:17:45.101Z,102186.16
2023-02-17T20:19:47.369Z,102182.78
2023-02-17T20:21:49.758Z,102184.66
2023-02-17T20:23:52.737Z,102191.59
2023-02-17T20:25:55.584Z,102191.59
2023-02-17T20:27:58.649Z,102196.22
2023-02-17T20:30:02.213Z,102198.78
2023-02-17T20:32:04.665Z,102203.03
2023-02-17T20:34:09.867Z,102193.63
2023-02-17T20:36:12.462Z,102187.47
2023-02-17T20:38:16.262Z,102185.00
2023-02-17T20:40:18.381Z,102182.25
2023-02-17T20:42:20.748Z,102188.88
2023-02-17T20:44:27.508Z,102177.94
2023-02-17T20:46:31.863Z,102170.84
2023-02-17T20:48:34.218Z,102181.69
2023-02-17T20:50:37.302Z,102180.38
2023-02-17T20:52:39.324Z,102189.13
2023-02-17T20:54:41.722Z,102194.06
2023-02-17T20:56:46.445Z,102191.34
2023-02-17T20:58:49.095Z,102190.53
2023-02-17T21:00:51.354Z,102186.09
2023-02-17T21:02:53.647Z,102188.88
2023-02-17T21:04:55.753Z,102191.34
2023-02-17T21:06:58.966Z,102176.78
2023-02-17T21:09:06.714Z,102187.97
2023-02-17T21:11:08.783Z,102185.66
2023-02-17T21:13:10.847Z,102188.63
2023-02-17T21:15:13.780Z,102184.34
2023-02-17T21:17:16.038Z,102182.97
2023-02-17T21:19:19.672Z,102181.41
2023-02-17T21:21:23.836Z,102189.31
2023-02-17T21:23:26.221Z,102180.13
2023-02-17T21:25:28.392Z,102186.34
2023-02-17T21:27:30.851Z,102177.69
2023-02-17T21:29:33.102Z,102179.59
2023-02-17T21:31:36.202Z,102177.50
2023-02-17T21:33:42.320Z,102184.97
2023-02-17T21:35:44.540Z,102185.91
2023-02-17T21:37:46.681Z,102181.41
2023-02-17T21:39:48.904Z,102178.97
2023-02-17T21:41:51.634Z,102182.66
2023-02-17T21:43:57.572Z,102173.09
2023-02-17T21:45:59.815Z,102184.88
2023-02-17T21:48:02.022Z,102184.88
2023-02-17T21:50:04.289Z,102171.22
2023-02-17T21:52:07.292Z,102185.84
2023-02-17T21:54:10.623Z,102187.31
2023-02-17T21:56:12.868Z,102176.28
2023-02-17T21:58:15.169Z,102176.16
2023-02-17T22:00:17.564Z,102171.06
2023-02-17T22:02:19.810Z,102183.34
2023-02-17T22:04:22.242Z,102182.47
2023-02-17T22:06:27.967Z,102172.66
2023-02-17T22:08:30.526Z,102180.16
2023-02-17T22:10:37.556Z,102170.91
2023-02-17T22:12:39.668Z,102176.06
2023-02-17T22:14:41.878Z,102166.81
2023-02-17T22:16:45.155Z,102162.00
2023-02-17T22:18:47.247Z,102154.16
2023-02-17T22:20:49.389Z,102159.94
2023-02-17T22:22:51.795Z,102149.59
2023-02-17T22:24:53.909Z,102150.28
2023-02-17T22:26:56.127Z,102150.94
2023-02-17T22:28:58.716Z,102152.78
2023-02-17T22:31:01.067Z,102139.38
2023-02-17T22:33:04.234Z,102133.50
2023-02-17T22:35:06.919Z,102133.97
2023-02-17T22:37:08.980Z,102123.41
2023-02-17T22:39:11.163Z,102136.91
2023-02-17T22:41:15.969Z,102137.34
2023-02-17T22:43:17.996Z,102127.00
2023-02-17T22:45:20.085Z,102117.16
2023-02-17T22:47:22.297Z,102123.03
2023-02-17T22:49:24.413Z,102132.81
2023-02-17T22:51:30.927Z,102109.28
2023-02-17T22:53:34.062Z,102111.13
2023-02-17T22:55:36.275Z,102113.91
2023-02-17T22:57:38.337Z,102113.75
2023-02-17T22:59:40.524Z,102112.94
2023-02-17T23:01:42.689Z,102132.72
2023-02-17T23:03:46.057Z,102125.09
2023-02-17T23:05:48.112Z,102111.84
2023-02-17T23:07:52.922Z,102111.09
2023-02-17T23:09:55.176Z,102114.31
2023-02-17T23:11:58.698Z,102118.94
2023-02-17T23:14:00.735Z,102122.94
2023-02-17T23:16:03.163Z,102112.53
2023-02-17T23:18:08.569Z,102105.91
2023-02-17T23:20:11.252Z,102092.50
2023-02-17T23:22:16.396Z,102096.34
2023-02-17T23:24:20.073Z,102100.53
2023-02-17T23:26:22.172Z,102105.19
2023-02-17T23:28:25.940Z,102092.88
2023-02-17T23:30:28.404Z,102094.75
2023-02-17T23:32:30.532Z,102099.34
2023-02-17T23:34:33.951Z,102093.78